createdAt,value
2019-03-01T00:00:03.975Z,1016.5
2019-03-01T00:01:03.634Z,1016.4
2019-03-01T00:02:03.238Z,1016.5
2019-03-01T00:03:03.878Z,1016.5
2019-03-01T00:04:03.742Z,1016.5
2019-03-01T00:05:03.878Z,1016.5
2019-03-01T00:06:03.666Z,1016.6
2019-03-01T00:07:03.221Z,1016.6
2019-03-01T00:08:03.898Z,1016.7
2019-03-01T00:09:03.161Z,1016.7
2019-03-01T00:10:03.748Z,1016.6
2019-03-01T00:11:03.656Z,1016.6
2019-03-01T00:12:03.445Z,1016.6
2019-03-01T00:13:03.070Z,1016.6
2019-03-01T00:14:03.470Z,1016.7
2019-03-01T00:15:03.389Z,1016.6
2019-03-01T00:16:03.080Z,1016.6
2019-03-01T00:17:03.910Z,1016.6
2019-03-01T00:18:03.256Z,1016.6
2019-03-01T00:19:03.752Z,1016.6
2019-03-01T00:20:03.168Z,1016.6
2019-03-01T00:21:04.046Z,1016.5
2019-03-01T00:22:04.073Z,1016.5
2019-03-01T00:23:03.607Z,1016.5
2019-03-01T00:24:02.859Z,1016.5
2019-03-01T00:25:02.900Z,1016.6
2019-03-01T00:26:03.960Z,1016.4
2019-03-01T00:27:03.279Z,1016.5
2019-03-01T00:28:03.545Z,1016.4
2019-03-01T00:29:03.804Z,1016.5
2019-03-01T00:30:03.692Z,1016.5
2019-03-01T00:31:02.949Z,1016.5
2019-03-01T00:32:03.025Z,1016.4
2019-03-01T00:33:03.135Z,1016.5
2019-03-01T00:34:03.743Z,1016.5
2019-03-01T00:35:03.669Z,1016.5
2019-03-01T00:36:03.828Z,1016.5
2019-03-01T00:37:03.780Z,1016.5
2019-03-01T00:38:02.803Z,1016.5
2019-03-01T00:39:03.640Z,1016.5
2019-03-01T00:40:03.932Z,1016.4
2019-03-01T00:41:03.679Z,1016.4
2019-03-01T00:42:04.094Z,1016.4
2019-03-01T00:43:03.844Z,1016.4
2019-03-01T00:44:03.971Z,1016.4
2019-03-01T00:45:03.902Z,1016.4
2019-03-01T00:46:03.587Z,1016.3
2019-03-01T00:47:03.759Z,1016.5
2019-03-01T00:48:03.648Z,1016.4
2019-03-01T00:49:03.836Z,1016.4
2019-03-01T00:50:03.632Z,1016.4
2019-03-01T00:51:03.665Z,1016.4
2019-03-01T00:52:03.627Z,1016.4
2019-03-01T00:53:03.716Z,1016.4
2019-03-01T00:54:03.690Z,1016.4
2019-03-01T00:55:03.838Z,1016.3
2019-03-01T00:56:03.667Z,1016.3
2019-03-01T00:57:04.131Z,1016.3
2019-03-01T00:58:03.772Z,1016.3
2019-03-01T00:59:04.301Z,1016.4
2019-03-01T01:00:04.384Z,1016.2
2019-03-01T01:01:03.755Z,1016.3
2019-03-01T01:02:03.906Z,1016.2
2019-03-01T01:03:03.753Z,1016.3
2019-03-01T01:04:03.882Z,1016.2
2019-03-01T01:05:03.624Z,1016.3
2019-03-01T01:06:03.588Z,1016.3
2019-03-01T01:07:03.799Z,1016.3
2019-03-01T01:08:03.988Z,1016.1
2019-03-01T01:09:03.779Z,1016.2
2019-03-01T01:10:03.710Z,1016.2
2019-03-01T01:11:03.781Z,1016.2
2019-03-01T01:12:03.567Z,1016.2
2019-03-01T01:13:03.768Z,1016.2
2019-03-01T01:14:03.597Z,1016.1
2019-03-01T01:15:03.669Z,1016.1
2019-03-01T01:16:03.768Z,1016.1
2019-03-01T01:17:03.111Z,1016.1
2019-03-01T01:18:04.321Z,1016.1
2019-03-01T01:19:03.633Z,1016
2019-03-01T01:20:04.098Z,1016
2019-03-01T01:21:03.741Z,1016
2019-03-01T01:22:04.058Z,1016
2019-03-01T01:23:03.690Z,1015.9
2019-03-01T01:24:02.974Z,1015.9
2019-03-01T01:25:03.888Z,1016.1
2019-03-01T01:26:04.002Z,1016.1
2019-03-01T01:27:03.869Z,1015.9
2019-03-01T01:28:03.689Z,1015.9
2019-03-01T01:29:03.627Z,1015.9
2019-03-01T01:30:03.661Z,1015.8
2019-03-01T01:31:03.607Z,1015.8
2019-03-01T01:32:03.770Z,1015.8
2019-03-01T01:33:03.855Z,1015.7
2019-03-01T01:34:03.527Z,1015.7
2019-03-01T01:35:03.659Z,1015.6
2019-03-01T01:36:03.687Z,1015.7
2019-03-01T01:37:03.930Z,1015.8
2019-03-01T01:38:03.497Z,1015.6
2019-03-01T01:39:03.672Z,1015.6
2019-03-01T01:40:03.768Z,1015.5
2019-03-01T01:41:03.812Z,1015.6
2019-03-01T01:42:03.624Z,1015.5
2019-03-01T01:43:03.762Z,1015.4
2019-03-01T01:44:03.765Z,1015.5
2019-03-01T01:45:03.795Z,1015.5
2019-03-01T01:46:03.424Z,1015.3
2019-03-01T01:47:03.451Z,1015.3
2019-03-01T01:48:03.932Z,1015.4
2019-03-01T01:49:03.521Z,1015.6
2019-03-01T01:50:03.819Z,1015.5
2019-03-01T01:51:03.689Z,1015.6
2019-03-01T01:52:03.937Z,1015.5
2019-03-01T01:53:03.606Z,1015.6
2019-03-01T01:54:03.581Z,1015.4
2019-03-01T01:55:03.604Z,1015.5
2019-03-01T01:56:03.454Z,1015.6
2019-03-01T01:57:03.706Z,1015.6
2019-03-01T01:58:02.833Z,1015.7
2019-03-01T01:59:03.582Z,1015.6
2019-03-01T02:00:03.295Z,1015.6
2019-03-01T02:01:03.430Z,1015.6
2019-03-01T02:02:03.163Z,1015.7
2019-03-01T02:03:03.294Z,1015.7
2019-03-01T02:04:03.411Z,1015.8
2019-03-01T02:05:03.549Z,1015.7
2019-03-01T02:06:03.466Z,1015.6
2019-03-01T02:07:03.497Z,1015.6
2019-03-01T02:08:03.584Z,1015.6
2019-03-01T02:09:03.490Z,1015.6
2019-03-01T02:10:03.514Z,1015.5
2019-03-01T02:11:03.396Z,1015.5
2019-03-01T02:12:03.361Z,1015.5
2019-03-01T02:13:03.154Z,1015.6
2019-03-01T02:14:03.556Z,1015.6
2019-03-01T02:15:03.201Z,1015.6
2019-03-01T02:16:03.165Z,1015.5
2019-03-01T02:17:03.122Z,1015.6
2019-03-01T02:18:03.291Z,1015.6
2019-03-01T02:19:02.776Z,1015.6
2019-03-01T02:20:02.803Z,1015.5
2019-03-01T02:21:03.130Z,1015.5
2019-03-01T02:22:03.626Z,1015.4
2019-03-01T02:23:03.319Z,1015.4
2019-03-01T02:24:03.978Z,1015.4
2019-03-01T02:25:03.455Z,1015.5
2019-03-01T02:26:03.038Z,1015.2
2019-03-01T02:27:03.692Z,1015.4
2019-03-01T02:28:02.718Z,1015.3
2019-03-01T02:29:03.938Z,1015.3
2019-03-01T02:30:02.739Z,1015.3
2019-03-01T02:31:04.106Z,1015.4
2019-03-01T02:32:03.207Z,1015.3
2019-03-01T02:33:03.312Z,1015.3
2019-03-01T02:34:03.530Z,1015.3
2019-03-01T02:35:03.954Z,1015.2
2019-03-01T02:36:03.115Z,1015.2
2019-03-01T02:37:03.904Z,1015.2
2019-03-01T02:38:03.857Z,1015.2
2019-03-01T02:39:03.650Z,1015.2
2019-03-01T02:40:03.678Z,1015.2
2019-03-01T02:41:04.122Z,1015.3
2019-03-01T02:42:03.775Z,1015.3
2019-03-01T02:43:03.888Z,1015.3
2019-03-01T02:44:03.784Z,1015.2
2019-03-01T02:45:03.780Z,1015.2
2019-03-01T02:46:03.716Z,1015.3
2019-03-01T02:47:03.913Z,1015.2
2019-03-01T02:48:03.279Z,1015.2
2019-03-01T02:49:04.007Z,1015.2
2019-03-01T02:50:03.265Z,1015.1
2019-03-01T02:51:03.646Z,1015.1
2019-03-01T02:52:03.462Z,1015.1
2019-03-01T02:53:03.892Z,1015
2019-03-01T02:54:03.580Z,1015.1
2019-03-01T02:55:03.761Z,1015.1
2019-03-01T02:56:03.950Z,1015
2019-03-01T02:57:03.460Z,1015
2019-03-01T02:58:03.726Z,1014.9
2019-03-01T02:59:03.723Z,1015
2019-03-01T03:00:03.783Z,1015
2019-03-01T03:01:03.239Z,1014.9
2019-03-01T03:02:03.661Z,1014.9
2019-03-01T03:03:03.618Z,1015
2019-03-01T03:04:03.549Z,1014.9
2019-03-01T03:05:03.540Z,1014.9
2019-03-01T03:06:03.433Z,1015
2019-03-01T03:07:03.464Z,1014.9
2019-03-01T03:08:03.191Z,1014.9
2019-03-01T03:09:03.343Z,1015
2019-03-01T03:10:02.939Z,1015
2019-03-01T03:11:03.437Z,1015
2019-03-01T03:12:02.998Z,1015
2019-03-01T03:13:03.326Z,1015
2019-03-01T03:14:03.207Z,1015
2019-03-01T03:15:03.411Z,1015
2019-03-01T03:16:03.310Z,1015
2019-03-01T03:17:03.228Z,1015.1
2019-03-01T03:18:03.163Z,1015
2019-03-01T03:19:03.775Z,1015
2019-03-01T03:20:03.281Z,1015
2019-03-01T03:21:03.060Z,1015
2019-03-01T03:22:03.270Z,1014.9
2019-03-01T03:23:03.892Z,1015.1
2019-03-01T03:24:03.070Z,1015
2019-03-01T03:25:04.128Z,1015.1
2019-03-01T03:26:04.070Z,1015.1
2019-03-01T03:27:04.103Z,1015.1
2019-03-01T03:28:03.978Z,1015.1
2019-03-01T03:29:03.904Z,1015
2019-03-01T03:30:04.079Z,1015.1
2019-03-01T03:31:03.964Z,1015.1
2019-03-01T03:32:04.172Z,1015.1
2019-03-01T03:33:03.978Z,1015.1
2019-03-01T03:34:03.644Z,1015.1
2019-03-01T03:35:03.761Z,1015.1
2019-03-01T03:36:03.476Z,1015.2
2019-03-01T03:37:03.598Z,1015.1
2019-03-01T03:38:03.371Z,1015.2
2019-03-01T03:39:03.430Z,1015.2
2019-03-01T03:40:03.490Z,1015.3
2019-03-01T03:41:03.536Z,1015.2
2019-03-01T03:42:03.495Z,1015.2
2019-03-01T03:43:03.229Z,1015.3
2019-03-01T03:44:03.299Z,1015.2
2019-03-01T03:45:03.405Z,1015.3
2019-03-01T03:46:02.933Z,1015.3
2019-03-01T03:47:03.168Z,1015.3
2019-03-01T03:48:03.284Z,1015.1
2019-03-01T03:49:03.469Z,1015.2
2019-03-01T03:50:03.063Z,1015.2
2019-03-01T03:51:03.369Z,1015.2
2019-03-01T03:52:03.285Z,1015.2
2019-03-01T03:53:03.501Z,1015.1
2019-03-01T03:54:03.134Z,1015.2
2019-03-01T03:55:03.441Z,1015.2
2019-03-01T03:56:03.285Z,1015.1
2019-03-01T03:57:03.321Z,1015.1
2019-03-01T03:58:03.446Z,1015
2019-03-01T03:59:03.697Z,1015.1
2019-03-01T04:00:03.359Z,1015
2019-03-01T04:01:03.223Z,1015
2019-03-01T04:02:02.949Z,1015
2019-03-01T04:03:03.220Z,1015
2019-03-01T04:04:03.209Z,1015
2019-03-01T04:05:03.296Z,1015
2019-03-01T04:06:03.230Z,1015
2019-03-01T04:07:02.677Z,1015.1
2019-03-01T04:08:03.360Z,1015
2019-03-01T04:09:03.478Z,1014.9
2019-03-01T04:10:03.672Z,1015.1
2019-03-01T04:11:03.293Z,1015.1
2019-03-01T04:12:03.179Z,1015.1
2019-03-01T04:13:03.281Z,1015
2019-03-01T04:14:03.791Z,1015.1
2019-03-01T04:15:03.250Z,1015
2019-03-01T04:16:03.316Z,1014.9
2019-03-01T04:17:03.214Z,1014.9
2019-03-01T04:18:03.854Z,1014.9
2019-03-01T04:19:02.863Z,1014.9
2019-03-01T04:20:03.066Z,1014.9
2019-03-01T04:21:04.085Z,1014.9
2019-03-01T04:22:03.649Z,1014.9
2019-03-01T04:23:02.935Z,1014.9
2019-03-01T04:24:04.055Z,1014.9
2019-03-01T04:25:03.021Z,1014.8
2019-03-01T04:26:03.693Z,1014.8
2019-03-01T04:27:03.682Z,1014.8
2019-03-01T04:28:03.936Z,1014.8
2019-03-01T04:29:03.942Z,1014.8
2019-03-01T04:30:03.808Z,1014.8
2019-03-01T04:31:03.497Z,1014.8
2019-03-01T04:32:03.732Z,1014.8
2019-03-01T04:33:03.719Z,1014.9
2019-03-01T04:34:06.415Z,1014.8
2019-03-01T04:35:03.784Z,1014.7
2019-03-01T04:36:03.814Z,1014.7
2019-03-01T04:37:03.176Z,1014.8
2019-03-01T04:38:03.378Z,1014.8
2019-03-01T04:39:03.536Z,1014.7
2019-03-01T04:40:03.676Z,1014.8
2019-03-01T04:41:03.650Z,1014.9
2019-03-01T04:42:03.383Z,1014.8
2019-03-01T04:43:03.663Z,1014.8
2019-03-01T04:44:03.419Z,1014.8
2019-03-01T04:45:03.321Z,1014.8
2019-03-01T04:46:03.534Z,1014.7
2019-03-01T04:47:03.542Z,1014.7
2019-03-01T04:48:03.595Z,1014.8
2019-03-01T04:49:03.465Z,1014.8
2019-03-01T04:50:03.609Z,1014.7
2019-03-01T04:51:03.405Z,1014.7
2019-03-01T04:52:03.629Z,1014.8
2019-03-01T04:53:03.131Z,1014.7
2019-03-01T04:54:03.583Z,1014.6
2019-03-01T04:55:03.426Z,1014.7
2019-03-01T04:56:03.381Z,1014.7
2019-03-01T04:57:03.545Z,1014.7
2019-03-01T04:58:03.454Z,1014.7
2019-03-01T04:59:03.386Z,1014.6
2019-03-01T05:00:03.427Z,1014.7
2019-03-01T05:01:03.489Z,1014.6
2019-03-01T05:02:03.314Z,1014.7
2019-03-01T05:03:03.253Z,1014.6
2019-03-01T05:04:03.357Z,1014.6
2019-03-01T05:05:03.536Z,1014.6
2019-03-01T05:06:02.965Z,1014.6
2019-03-01T05:07:03.571Z,1014.6
2019-03-01T05:08:03.180Z,1014.5
2019-03-01T05:09:03.292Z,1014.5
2019-03-01T05:10:03.313Z,1014.5
2019-03-01T05:11:03.103Z,1014.5
2019-03-01T05:12:03.419Z,1014.6
2019-03-01T05:13:03.202Z,1014.6
2019-03-01T05:14:03.335Z,1014.5
2019-03-01T05:15:03.010Z,1014.5
2019-03-01T05:16:03.127Z,1014.4
2019-03-01T05:17:03.143Z,1014.4
2019-03-01T05:18:03.295Z,1014.4
2019-03-01T05:19:03.111Z,1014.4
2019-03-01T05:20:03.273Z,1014.4
2019-03-01T05:21:03.257Z,1014.5
2019-03-01T05:22:03.087Z,1014.4
2019-03-01T05:23:03.068Z,1014.4
2019-03-01T05:24:03.070Z,1014.4
2019-03-01T05:25:03.411Z,1014.4
2019-03-01T05:26:03.035Z,1014.4
2019-03-01T05:27:02.932Z,1014.3
2019-03-01T05:28:04.014Z,1014.4
2019-03-01T05:29:03.042Z,1014.3
2019-03-01T05:30:03.839Z,1014.3
2019-03-01T05:31:03.746Z,1014.2
2019-03-01T05:32:03.082Z,1014.3
2019-03-01T05:33:03.660Z,1014.2
2019-03-01T05:34:03.907Z,1014.2
2019-03-01T05:35:03.814Z,1014.2
2019-03-01T05:36:03.757Z,1014.2
2019-03-01T05:37:03.347Z,1014.3
2019-03-01T05:38:03.345Z,1014.3
2019-03-01T05:39:03.647Z,1014.2
2019-03-01T05:40:03.749Z,1014.2
2019-03-01T05:41:03.532Z,1014.2
2019-03-01T05:42:03.346Z,1014.3
2019-03-01T05:43:03.697Z,1014.2
2019-03-01T05:44:03.111Z,1014.2
2019-03-01T05:45:03.708Z,1014.2
2019-03-01T05:46:03.332Z,1014.2
2019-03-01T05:47:03.274Z,1014.2
2019-03-01T05:48:03.133Z,1014.2
2019-03-01T05:49:03.359Z,1014.2
2019-03-01T05:50:03.253Z,1014
2019-03-01T05:51:03.266Z,1014.2
2019-03-01T05:52:03.425Z,1014.2
2019-03-01T05:53:03.829Z,1014.2
2019-03-01T05:54:03.094Z,1014.2
2019-03-01T05:55:03.129Z,1014.2
2019-03-01T05:56:03.441Z,1014.2
2019-03-01T05:57:03.149Z,1014
2019-03-01T05:58:03.385Z,1014
2019-03-01T05:59:04.006Z,1014.2
2019-03-01T06:00:03.415Z,1014
2019-03-01T06:01:02.897Z,1014.2
2019-03-01T06:02:03.198Z,1014
2019-03-01T06:03:03.111Z,1014
2019-03-01T06:04:03.194Z,1014
2019-03-01T06:05:03.374Z,1013.9
2019-03-01T06:06:03.444Z,1014
2019-03-01T06:07:03.501Z,1013.9
2019-03-01T06:08:02.943Z,1014
2019-03-01T06:09:02.927Z,1014
2019-03-01T06:10:03.053Z,1014
2019-03-01T06:11:04.023Z,1014
2019-03-01T06:12:03.337Z,1014.2
2019-03-01T06:13:03.049Z,1013.8
2019-03-01T06:14:03.144Z,1014
2019-03-01T06:15:03.213Z,1014
2019-03-01T06:16:02.740Z,1014
2019-03-01T06:17:02.721Z,1014.2
2019-03-01T06:18:03.632Z,1014
2019-03-01T06:19:03.284Z,1014
2019-03-01T06:20:02.843Z,1014
2019-03-01T06:21:03.849Z,1014
2019-03-01T06:22:03.610Z,1014.2
2019-03-01T06:23:03.764Z,1013.9
2019-03-01T06:24:03.795Z,1014
2019-03-01T06:25:03.789Z,1013.9
2019-03-01T06:26:03.591Z,1014
2019-03-01T06:27:03.742Z,1014
2019-03-01T06:28:03.714Z,1014
2019-03-01T06:29:03.777Z,1014
2019-03-01T06:30:03.740Z,1014.2
2019-03-01T06:31:03.700Z,1014
2019-03-01T06:32:03.746Z,1013.9
2019-03-01T06:33:03.571Z,1014.2
2019-03-01T06:34:03.587Z,1014
2019-03-01T06:35:03.725Z,1014
2019-03-01T06:36:03.523Z,1013.9
2019-03-01T06:37:03.624Z,1014
2019-03-01T06:38:03.568Z,1014
2019-03-01T06:39:02.989Z,1014.1
2019-03-01T06:40:03.645Z,1014.1
2019-03-01T06:41:03.625Z,1014.1
2019-03-01T06:42:03.299Z,1014.1
2019-03-01T06:43:03.594Z,1014
2019-03-01T06:44:03.540Z,1014.1
2019-03-01T06:45:03.647Z,1014.1
2019-03-01T06:46:03.491Z,1014.1
2019-03-01T06:47:03.571Z,1014.1
2019-03-01T06:48:03.406Z,1014.1
2019-03-01T06:49:03.441Z,1014.1
2019-03-01T06:50:03.556Z,1014.2
2019-03-01T06:51:03.344Z,1014.1
2019-03-01T06:52:03.247Z,1014.1
2019-03-01T06:53:03.266Z,1014
2019-03-01T06:54:03.448Z,1014.1
2019-03-01T06:55:03.139Z,1014.1
2019-03-01T06:56:03.411Z,1014
2019-03-01T06:57:03.189Z,1014
2019-03-01T06:58:03.621Z,1014.1
2019-03-01T06:59:03.087Z,1014.1
2019-03-01T07:00:03.236Z,1014.1
2019-03-01T07:01:02.971Z,1014.1
2019-03-01T07:02:03.269Z,1014
2019-03-01T07:03:03.197Z,1014.1
2019-03-01T07:04:03.206Z,1014.1
2019-03-01T07:05:02.885Z,1014.1
2019-03-01T07:06:04.084Z,1014
2019-03-01T07:07:03.002Z,1014.1
2019-03-01T07:08:02.952Z,1014.1
2019-03-01T07:09:03.108Z,1014.1
2019-03-01T07:10:03.511Z,1014
2019-03-01T07:11:03.807Z,1014.1
2019-03-01T07:12:03.693Z,1014.1
2019-03-01T07:13:03.644Z,1014.1
2019-03-01T07:14:03.769Z,1014.1
2019-03-01T07:15:03.581Z,1014.1
2019-03-01T07:16:03.564Z,1014
2019-03-01T07:17:03.471Z,1014.1
2019-03-01T07:18:03.401Z,1014
2019-03-01T07:19:03.351Z,1014
2019-03-01T07:20:03.698Z,1013.9
2019-03-01T07:21:03.291Z,1014
2019-03-01T07:22:03.597Z,1013.9
2019-03-01T07:23:03.524Z,1013.9
2019-03-01T07:24:03.924Z,1013.9
2019-03-01T07:25:03.729Z,1013.9
2019-03-01T07:26:03.525Z,1013.9
2019-03-01T07:27:03.294Z,1013.9
2019-03-01T07:28:03.302Z,1013.9
2019-03-01T07:29:03.305Z,1013.9
2019-03-01T07:30:02.969Z,1013.9
2019-03-01T07:31:03.477Z,1013.8
2019-03-01T07:32:02.992Z,1013.8
2019-03-01T07:33:03.341Z,1013.9
2019-03-01T07:34:03.477Z,1013.8
2019-03-01T07:35:03.377Z,1013.8
2019-03-01T07:36:03.043Z,1013.9
2019-03-01T07:37:03.095Z,1013.8
2019-03-01T07:38:03.192Z,1013.9
2019-03-01T07:39:03.601Z,1013.8
2019-03-01T07:40:03.456Z,1013.8
2019-03-01T07:41:02.962Z,1013.9
2019-03-01T07:42:03.282Z,1013.8
2019-03-01T07:43:03.195Z,1013.8
2019-03-01T07:44:03.040Z,1013.8
2019-03-01T07:45:02.945Z,1013.8
2019-03-01T07:46:03.533Z,1013.8
2019-03-01T07:47:03.942Z,1013.8
2019-03-01T07:48:02.985Z,1013.8
2019-03-01T07:49:03.116Z,1013.8
2019-03-01T07:50:03.186Z,1013.8
2019-03-01T07:51:03.856Z,1013.7
2019-03-01T07:52:06.232Z,1013.6
2019-03-01T07:53:05.129Z,1013.5
2019-03-01T07:54:03.313Z,1013.8
2019-03-01T07:55:03.150Z,1013.8
2019-03-01T07:56:05.759Z,1013.7
2019-03-01T07:57:03.246Z,1013.7
2019-03-01T07:58:03.158Z,1013.7
2019-03-01T07:59:03.616Z,1013.6
2019-03-01T08:00:03.272Z,1013.7
2019-03-01T08:01:03.392Z,1013.6
2019-03-01T08:02:05.451Z,1013.7
2019-03-01T08:03:03.526Z,1013.7
2019-03-01T08:04:03.187Z,1013.7
2019-03-01T08:05:05.470Z,1013.7
2019-03-01T08:06:03.226Z,1013.8
2019-03-01T08:07:03.264Z,1013.6
2019-03-01T08:08:04.048Z,1013.7
2019-03-01T08:09:03.714Z,1013.7
2019-03-01T08:10:03.814Z,1013.7
2019-03-01T08:11:03.561Z,1013.7
2019-03-01T08:12:08.452Z,1013.7
2019-03-01T08:13:03.860Z,1013.6
2019-03-01T08:14:03.853Z,1013.7
2019-03-01T08:15:09.818Z,1013.6
2019-03-01T08:16:03.691Z,1013.7
2019-03-01T08:17:03.997Z,1013.6
2019-03-01T08:18:09.656Z,1013.6
2019-03-01T08:19:03.416Z,1013.6
2019-03-01T08:20:03.861Z,1013.5
2019-03-01T08:21:11.752Z,1013.6
2019-03-01T08:22:03.424Z,1013.6
2019-03-01T08:23:03.527Z,1013.5
2019-03-01T08:24:03.879Z,1013.6
2019-03-01T08:25:03.614Z,1013.6
2019-03-01T08:26:04.093Z,1013.5
2019-03-01T08:27:11.436Z,1013.5
2019-03-01T08:28:03.460Z,1013.6
2019-03-01T08:29:03.849Z,1013.6
2019-03-01T08:30:11.542Z,1013.5
2019-03-01T08:31:03.544Z,1013.5
2019-03-01T08:32:03.450Z,1013.6
2019-03-01T08:33:08.279Z,1013.5
2019-03-01T08:34:03.457Z,1013.5
2019-03-01T08:35:06.425Z,1013.5
2019-03-01T08:36:07.490Z,1013.5
2019-03-01T08:37:03.076Z,1013.6
2019-03-01T08:38:03.653Z,1013.5
2019-03-01T08:39:07.313Z,1013.5
2019-03-01T08:40:03.373Z,1013.4
2019-03-01T08:41:03.990Z,1013.6
2019-03-01T08:42:03.871Z,1013.5
2019-03-01T08:43:03.681Z,1013.5
2019-03-01T08:44:03.957Z,1013.5
2019-03-01T08:45:03.843Z,1013.5
2019-03-01T08:46:10.768Z,1013.5
2019-03-01T08:47:04.016Z,1013.5
2019-03-01T08:48:03.786Z,1013.4
2019-03-01T08:49:11.616Z,1013.5
2019-03-01T08:50:03.782Z,1013.5
2019-03-01T08:51:03.629Z,1013.4
2019-03-01T08:52:03.799Z,1013.5
2019-03-01T08:53:03.727Z,1013.4
2019-03-01T08:54:03.646Z,1013.3
2019-03-01T08:55:04.942Z,1013.3
2019-03-01T08:56:03.076Z,1013.3
2019-03-01T08:57:03.876Z,1013.3
2019-03-01T08:58:07.511Z,1013.3
2019-03-01T08:59:03.396Z,1013.4
2019-03-01T09:00:02.885Z,1013.3
2019-03-01T09:01:10.102Z,1013.3
2019-03-01T09:02:03.996Z,1013.3
2019-03-01T09:03:03.753Z,1013.4
2019-03-01T09:04:02.928Z,1013.2
2019-03-01T09:05:10.191Z,1013.1
2019-03-01T09:06:04.091Z,1013.3
2019-03-01T09:07:03.253Z,1013.2
2019-03-01T09:08:02.989Z,1013.3
2019-03-01T09:09:03.195Z,1013.2
2019-03-01T09:10:03.176Z,1013.2
2019-03-01T09:11:10.714Z,1013.2
2019-03-01T09:12:03.087Z,1013.1
2019-03-01T09:13:02.925Z,1013.3
2019-03-01T09:14:03.569Z,1013.2
2019-03-01T09:15:08.560Z,1013.2
2019-03-01T09:16:03.754Z,1013.2
2019-03-01T09:17:04.016Z,1013.2
2019-03-01T09:18:03.124Z,1013.2
2019-03-01T09:19:03.392Z,1013.2
2019-03-01T09:20:03.625Z,1013.2
2019-03-01T09:21:13.889Z,1013.2
2019-03-01T09:22:03.157Z,1013.2
2019-03-01T09:23:27.637Z,1013.2
2019-03-01T09:24:03.429Z,1013.2
2019-03-01T09:25:09.165Z,1013.1
2019-03-01T09:26:03.278Z,1013.1
2019-03-01T09:27:03.560Z,1013.1
2019-03-01T09:28:03.339Z,1013.1
2019-03-01T09:29:03.346Z,1013.1
2019-03-01T09:30:04.676Z,1013
2019-03-01T09:31:03.184Z,1013
2019-03-01T09:32:03.041Z,1013.2
2019-03-01T09:33:03.521Z,1013
2019-03-01T09:34:03.281Z,1013.1
2019-03-01T09:35:09.256Z,1013.1
2019-03-01T09:36:02.887Z,1013.1
2019-03-01T09:37:03.476Z,1013.1
2019-03-01T09:38:08.673Z,1012.9
2019-03-01T09:39:03.393Z,1013
2019-03-01T09:40:06.361Z,1013.1
2019-03-01T09:41:05.752Z,1013
2019-03-01T09:42:06.830Z,1013
2019-03-01T09:43:03.418Z,1013.1
2019-03-01T09:44:04.174Z,1013
2019-03-01T09:45:03.235Z,1013.1
2019-03-01T09:46:03.359Z,1013.1
2019-03-01T09:47:03.352Z,1013.1
2019-03-01T09:48:13.062Z,1013.1
2019-03-01T09:49:03.463Z,1013.1
2019-03-01T09:50:03.660Z,1013.1
2019-03-01T09:51:03.963Z,1013.1
2019-03-01T09:52:03.369Z,1013
2019-03-01T09:53:03.178Z,1013
2019-03-01T09:54:02.960Z,1013
2019-03-01T09:55:02.987Z,1013.1
2019-03-01T09:56:03.261Z,1013.1
2019-03-01T09:57:03.415Z,1012.9
2019-03-01T09:58:03.384Z,1013
2019-03-01T09:59:03.431Z,1013
2019-03-01T10:00:03.468Z,1013
2019-03-01T10:01:03.237Z,1013
2019-03-01T10:02:03.260Z,1013
2019-03-01T10:03:03.513Z,1013
2019-03-01T10:04:03.655Z,1012.9
2019-03-01T10:05:03.851Z,1012.9
2019-03-01T10:06:03.428Z,1013
2019-03-01T10:07:03.377Z,1013
2019-03-01T10:08:03.081Z,1012.9
2019-03-01T10:09:03.534Z,1012.8
2019-03-01T10:10:03.771Z,1012.9
2019-03-01T10:11:03.423Z,1012.9
2019-03-01T10:12:03.481Z,1012.9
2019-03-01T10:13:03.484Z,1012.9
2019-03-01T10:14:03.142Z,1012.9
2019-03-01T10:15:03.249Z,1012.9
2019-03-01T10:16:03.563Z,1012.9
2019-03-01T10:17:03.268Z,1012.9
2019-03-01T10:18:03.760Z,1013
2019-03-01T10:19:03.234Z,1013
2019-03-01T10:20:03.529Z,1013
2019-03-01T10:21:03.460Z,1013
2019-03-01T10:22:03.362Z,1013.1
2019-03-01T10:23:03.535Z,1013
2019-03-01T10:24:03.498Z,1013.1
2019-03-01T10:25:03.475Z,1013.2
2019-03-01T10:26:03.136Z,1013.3
2019-03-01T10:27:04.010Z,1013.2
2019-03-01T10:28:03.836Z,1013.3
2019-03-01T10:29:03.675Z,1013.4
2019-03-01T10:30:03.449Z,1013.2
2019-03-01T10:31:03.471Z,1013.2
2019-03-01T10:32:03.476Z,1013.3
2019-03-01T10:33:03.798Z,1013.2
2019-03-01T10:34:03.539Z,1013.4
2019-03-01T10:35:03.658Z,1013.3
2019-03-01T10:36:03.593Z,1013.3
2019-03-01T10:37:03.445Z,1013.2
2019-03-01T10:38:03.415Z,1013.2
2019-03-01T10:39:03.627Z,1013.1
2019-03-01T10:40:03.733Z,1013.2
2019-03-01T10:41:03.574Z,1013.1
2019-03-01T10:42:03.734Z,1013.2
2019-03-01T10:43:03.427Z,1013.2
2019-03-01T10:44:03.303Z,1013.1
2019-03-01T10:45:03.620Z,1013.2
2019-03-01T10:46:03.482Z,1013.1
2019-03-01T10:47:03.299Z,1013.3
2019-03-01T10:48:03.455Z,1013.2
2019-03-01T10:49:03.615Z,1013.2
2019-03-01T10:50:03.211Z,1013.2
2019-03-01T10:51:03.534Z,1013.1
2019-03-01T10:52:03.003Z,1013.1
2019-03-01T10:53:03.719Z,1013.2
2019-03-01T10:54:03.317Z,1013.2
2019-03-01T10:55:03.489Z,1013.1
2019-03-01T10:56:02.998Z,1013.1
2019-03-01T10:57:03.092Z,1013.2
2019-03-01T10:58:03.236Z,1013.2
2019-03-01T10:59:03.585Z,1013.2
2019-03-01T11:00:03.382Z,1013.1
2019-03-01T11:01:03.221Z,1013.2
2019-03-01T11:02:03.250Z,1013.2
2019-03-01T11:03:02.975Z,1013.3
2019-03-01T11:04:03.937Z,1013.2
2019-03-01T11:05:03.151Z,1013.1
2019-03-01T11:06:03.282Z,1013.2
2019-03-01T11:07:03.049Z,1013.2
2019-03-01T11:08:03.256Z,1013.2
2019-03-01T11:09:03.106Z,1013.3
2019-03-01T11:10:03.609Z,1013.3
2019-03-01T11:11:03.253Z,1013.3
2019-03-01T11:12:03.446Z,1013.2
2019-03-01T11:13:03.010Z,1013.4
2019-03-01T11:14:03.277Z,1013.3
2019-03-01T11:15:03.237Z,1013.3
2019-03-01T11:16:03.058Z,1013.2
2019-03-01T11:17:03.314Z,1013.3
2019-03-01T11:18:03.141Z,1013.3
2019-03-01T11:19:03.128Z,1013.3
2019-03-01T11:20:03.784Z,1013.2
2019-03-01T11:21:03.998Z,1013.3
2019-03-01T11:22:02.971Z,1013.3
2019-03-01T11:23:03.271Z,1013.3
2019-03-01T11:24:03.732Z,1013.3
2019-03-01T11:25:04.139Z,1013.2
2019-03-01T11:26:02.889Z,1013.2
2019-03-01T11:27:13.549Z,1013.3
2019-03-01T11:28:03.673Z,1013.2
2019-03-01T11:29:03.256Z,1013.2
2019-03-01T11:30:03.442Z,1013.2
2019-03-01T11:31:03.040Z,1013.2
2019-03-01T11:32:02.900Z,1013.2
2019-03-01T11:33:03.014Z,1013.1
2019-03-01T11:34:03.002Z,1013
2019-03-01T11:35:03.284Z,1013.1
2019-03-01T11:36:03.059Z,1013.1
2019-03-01T11:37:03.037Z,1013.1
2019-03-01T11:38:02.780Z,1013.2
2019-03-01T11:39:03.160Z,1013.1
2019-03-01T11:40:03.341Z,1013.1
2019-03-01T11:41:03.088Z,1013.2
2019-03-01T11:42:03.442Z,1013.2
2019-03-01T11:43:03.334Z,1013.1
2019-03-01T11:44:03.151Z,1013.1
2019-03-01T11:45:03.882Z,1013.1
2019-03-01T11:46:03.109Z,1013.1
2019-03-01T11:47:03.236Z,1013.1
2019-03-01T11:48:03.270Z,1013.1
2019-03-01T11:49:02.970Z,1013.1
2019-03-01T11:50:03.526Z,1013
2019-03-01T11:51:03.060Z,1013.1
2019-03-01T11:52:03.165Z,1013.1
2019-03-01T11:53:03.298Z,1013
2019-03-01T11:54:03.131Z,1013.1
2019-03-01T11:55:03.276Z,1013.1
2019-03-01T11:56:03.060Z,1013.1
2019-03-01T11:57:03.058Z,1013.1
2019-03-01T11:58:03.184Z,1013
2019-03-01T11:59:03.003Z,1013
2019-03-01T12:00:02.925Z,1013
2019-03-01T12:01:04.718Z,1013.1
2019-03-01T12:02:03.016Z,1013.1
2019-03-01T12:03:03.838Z,1013
2019-03-01T12:04:03.333Z,1013.1
2019-03-01T12:05:03.174Z,1012.9
2019-03-01T12:06:03.081Z,1013
2019-03-01T12:07:03.136Z,1013
2019-03-01T12:08:03.288Z,1012.9
2019-03-01T12:09:03.914Z,1012.8
2019-03-01T12:10:03.162Z,1012.8
2019-03-01T12:11:02.968Z,1012.7
2019-03-01T12:12:03.188Z,1012.7
2019-03-01T12:13:03.137Z,1012.8
2019-03-01T12:14:03.099Z,1012.8
2019-03-01T12:15:03.123Z,1012.8
2019-03-01T12:16:03.867Z,1012.7
2019-03-01T12:17:02.896Z,1012.8
2019-03-01T12:18:02.809Z,1012.6
2019-03-01T12:19:02.766Z,1012.7
2019-03-01T12:20:03.974Z,1012.7
2019-03-01T12:21:03.151Z,1012.7
2019-03-01T12:22:03.865Z,1012.7
2019-03-01T12:23:03.790Z,1012.7
2019-03-01T12:24:03.150Z,1012.8
2019-03-01T12:25:03.017Z,1012.7
2019-03-01T12:26:03.183Z,1012.7
2019-03-01T12:27:03.649Z,1012.8
2019-03-01T12:28:03.033Z,1012.7
2019-03-01T12:29:02.776Z,1012.8
2019-03-01T12:30:03.825Z,1012.8
2019-03-01T12:31:03.019Z,1012.7
2019-03-01T12:32:03.124Z,1012.8
2019-03-01T12:33:04.002Z,1012.7
2019-03-01T12:34:03.319Z,1012.8
2019-03-01T12:35:04.133Z,1012.8